createdAt,value
2022-09-23T00:01:58.621Z,31.90
2022-09-23T00:05:06.942Z,32.60
2022-09-23T00:08:15.170Z,31.00
2022-09-23T00:11:23.791Z,33.77
2022-09-23T00:14:29.669Z,30.30
2022-09-23T00:17:38.973Z,29.70
2022-09-23T00:20:44.584Z,33.10
2022-09-23T00:23:52.062Z,32.40
2022-09-23T00:26:57.996Z,32.20
2022-09-23T00:30:09.473Z,28.97
2022-09-23T00:33:18.001Z,34.13
2022-09-23T00:36:24.820Z,32.13
2022-09-23T00:39:30.417Z,29.03
2022-09-23T00:42:36.837Z,31.57
2022-09-23T00:45:42.752Z,31.23
2022-09-23T00:49:03.388Z,27.73
2022-09-23T00:52:16.053Z,31.93
2022-09-23T00:55:28.019Z,30.40
2022-09-23T00:58:37.298Z,31.67
2022-09-23T01:01:44.287Z,31.63
2022-09-23T01:04:54.397Z,27.40
2022-09-23T01:08:04.225Z,27.97
2022-09-23T01:11:21.937Z,29.07
2022-09-23T01:14:40.678Z,29.67
2022-09-23T01:17:54.479Z,31.50
2022-09-23T01:21:21.668Z,29.97
2022-09-23T01:24:49.141Z,29.97
2022-09-23T01:28:16.000Z,31.80
2022-09-23T01:31:31.709Z,30.13
2022-09-23T01:34:45.199Z,26.97
2022-09-23T01:37:55.381Z,30.37
2022-09-23T01:41:09.600Z,27.20
2022-09-23T01:44:22.122Z,29.60
2022-09-23T01:47:35.697Z,28.37
2022-09-23T01:51:03.478Z,24.67
2022-09-23T01:54:16.065Z,23.33
2022-09-23T01:57:28.686Z,26.40
2022-09-23T02:00:40.852Z,26.73
2022-09-23T02:03:55.484Z,23.70
2022-09-23T02:07:06.580Z,24.83
2022-09-23T02:10:18.627Z,23.90
2022-09-23T02:13:32.778Z,26.67
2022-09-23T02:16:42.815Z,25.13
2022-09-23T02:19:56.733Z,23.47
2022-09-23T02:23:06.446Z,23.47
2022-09-23T02:26:21.886Z,21.90
2022-09-23T02:29:34.355Z,22.00
2022-09-23T02:32:51.832Z,20.07
2022-09-23T02:36:06.685Z,20.17
2022-09-23T02:39:16.817Z,21.40
2022-09-23T02:42:26.463Z,24.00
2022-09-23T02:45:33.870Z,21.27
2022-09-23T02:48:44.078Z,20.93
2022-09-23T02:51:54.705Z,21.73
2022-09-23T02:55:01.066Z,22.37
2022-09-23T02:58:08.794Z,21.93
2022-09-23T03:01:22.289Z,20.80
2022-09-23T03:04:38.586Z,18.70
2022-09-23T03:07:55.284Z,20.63
2022-09-23T03:11:08.799Z,19.23
2022-09-23T03:14:22.281Z,22.03
2022-09-23T03:17:37.746Z,20.40
2022-09-23T03:20:49.705Z,18.57
2022-09-23T03:24:03.729Z,20.43
2022-09-23T03:27:15.174Z,20.30
2022-09-23T03:30:22.133Z,20.63
2022-09-23T03:33:30.558Z,19.90
2022-09-23T03:36:55.023Z,19.33
2022-09-23T03:40:12.300Z,18.73
2022-09-23T03:43:19.662Z,21.47
2022-09-23T03:46:28.722Z,19.23
2022-09-23T03:49:40.027Z,18.73
2022-09-23T03:52:46.611Z,19.20
2022-09-23T03:55:55.792Z,21.43
2022-09-23T03:59:03.324Z,20.40
2022-09-23T04:02:10.542Z,22.57
2022-09-23T04:05:18.212Z,21.97
2022-09-23T04:08:24.909Z,24.50
2022-09-23T04:11:33.221Z,24.23
2022-09-23T04:14:39.635Z,23.23
2022-09-23T04:17:45.207Z,24.10
2022-09-23T04:20:51.678Z,21.30
2022-09-23T04:23:57.258Z,25.93
2022-09-23T04:27:06.551Z,24.10
2022-09-23T04:30:13.050Z,22.33
2022-09-23T04:33:19.698Z,22.00
2022-09-23T04:36:25.512Z,22.53
2022-09-23T04:39:32.157Z,23.23
2022-09-23T04:42:40.511Z,26.83
2022-09-23T04:45:47.346Z,26.27
2022-09-23T04:48:52.982Z,19.20
2022-09-23T04:51:59.663Z,21.47
2022-09-23T04:55:10.958Z,23.00
2022-09-23T04:58:23.180Z,25.67
2022-09-23T05:01:31.305Z,21.43
2022-09-23T05:04:38.279Z,19.90
2022-09-23T05:07:43.899Z,19.33
2022-09-23T05:10:50.331Z,19.43
2022-09-23T05:13:58.760Z,19.10
2022-09-23T05:17:08.373Z,18.70
2022-09-23T05:20:15.920Z,21.70
2022-09-23T05:23:22.839Z,21.63
2022-09-23T05:26:29.877Z,23.20
2022-09-23T05:29:39.374Z,24.57
2022-09-23T05:32:45.806Z,23.47
2022-09-23T05:35:54.570Z,21.83
2022-09-23T05:39:01.341Z,21.93
2022-09-23T05:42:12.586Z,23.90
2022-09-23T05:45:21.019Z,23.37
2022-09-23T05:48:27.519Z,28.53
2022-09-23T05:51:33.702Z,31.50
2022-09-23T05:54:41.024Z,27.07
2022-09-23T05:57:46.572Z,28.80
2022-09-23T06:00:56.916Z,25.50
2022-09-23T06:04:03.547Z,25.53
2022-09-23T06:07:10.437Z,25.53
2022-09-23T06:10:17.485Z,19.87
2022-09-23T06:13:23.908Z,24.43
2022-09-23T06:16:34.180Z,21.47
2022-09-23T06:19:41.014Z,22.50
2022-09-23T06:22:47.475Z,22.90
2022-09-23T06:25:55.740Z,21.00
2022-09-23T06:29:03.327Z,21.03
2022-09-23T06:32:12.846Z,20.20
2022-09-23T06:35:26.488Z,21.00
2022-09-23T06:38:34.805Z,22.43
2022-09-23T06:41:40.400Z,18.47
2022-09-23T06:44:51.496Z,25.33
2022-09-23T06:48:03.333Z,20.47
2022-09-23T06:51:11.424Z,23.13
2022-09-23T06:54:17.098Z,28.27
2022-09-23T06:57:24.551Z,24.50
2022-09-23T07:00:30.156Z,25.03
2022-09-23T07:03:40.947Z,24.17
2022-09-23T07:06:46.475Z,25.63
2022-09-23T07:09:53.115Z,27.90
2022-09-23T07:12:59.119Z,24.07
2022-09-23T07:16:06.396Z,15.20
2022-09-23T07:19:15.221Z,15.73
2022-09-23T07:22:21.804Z,15.97
2022-09-23T07:25:27.705Z,16.87
2022-09-23T07:28:34.205Z,15.83
2022-09-23T07:31:40.325Z,15.43
2022-09-23T07:34:50.055Z,11.10
2022-09-23T07:37:55.590Z,9.77
2022-09-23T07:41:06.938Z,10.57
2022-09-23T07:44:13.767Z,11.93
2022-09-23T07:47:20.717Z,8.13
2022-09-23T07:50:32.047Z,11.77
2022-09-23T07:53:38.481Z,13.87
2022-09-23T07:56:45.213Z,6.43
2022-09-23T07:59:51.620Z,5.80
2022-09-23T08:03:00.366Z,7.87
2022-09-23T08:06:15.801Z,9.20
2022-09-23T08:09:22.920Z,6.33
2022-09-23T08:12:30.565Z,7.83
2022-09-23T08:15:36.177Z,8.60
2022-09-23T08:18:42.582Z,8.63
2022-09-23T08:21:52.410Z,9.43
2022-09-23T08:24:58.805Z,7.23
2022-09-23T08:28:06.287Z,7.03
2022-09-23T08:31:13.798Z,7.93
2022-09-23T08:34:20.399Z,7.77
2022-09-23T08:37:30.043Z,7.70
2022-09-23T08:40:38.925Z,7.13
2022-09-23T08:43:51.242Z,11.27
2022-09-23T08:47:06.351Z,6.57
2022-09-23T08:50:21.165Z,6.70
2022-09-23T08:53:32.717Z,9.53
2022-09-23T08:56:42.487Z,6.00
2022-09-23T08:59:49.598Z,6.33
2022-09-23T09:02:58.114Z,10.77
2022-09-23T09:06:04.263Z,7.27
2022-09-23T09:09:24.895Z,10.63
2022-09-23T09:12:37.450Z,12.13
2022-09-23T09:15:55.202Z,7.63
2022-09-23T09:19:03.352Z,5.10
2022-09-23T09:22:17.122Z,8.47
2022-09-23T09:25:39.955Z,7.03
2022-09-23T09:28:52.127Z,6.10
2022-09-23T09:31:58.311Z,6.13
2022-09-23T09:35:12.909Z,8.03
2022-09-23T09:38:22.246Z,5.93
2022-09-23T09:41:33.353Z,7.00
2022-09-23T09:44:45.092Z,10.20
2022-09-23T09:47:58.742Z,8.97
2022-09-23T09:51:21.766Z,6.80
2022-09-23T09:54:28.970Z,9.30
2022-09-23T09:57:42.906Z,7.70
2022-09-23T10:00:50.825Z,12.53
2022-09-23T10:03:59.613Z,7.83
2022-09-23T10:07:10.717Z,9.03
2022-09-23T10:10:36.695Z,9.43
2022-09-23T10:14:06.326Z,8.17
2022-09-23T10:17:20.818Z,5.67
2022-09-23T10:20:28.009Z,5.17
2022-09-23T10:23:35.194Z,6.63
2022-09-23T10:26:46.496Z,3.87
2022-09-23T10:29:58.115Z,4.97
2022-09-23T10:33:06.637Z,5.27
2022-09-23T10:36:13.937Z,6.13
2022-09-23T10:39:36.215Z,8.17
2022-09-23T10:43:15.511Z,7.07
2022-09-23T10:46:48.740Z,5.80
2022-09-23T10:50:17.568Z,10.87
2022-09-23T10:53:35.671Z,3.43
2022-09-23T10:56:48.826Z,3.10
2022-09-23T11:00:06.413Z,3.50
2022-09-23T11:03:58.544Z,5.83
2022-09-23T11:07:15.437Z,4.40
2022-09-23T11:11:03.369Z,3.13
2022-09-23T11:14:32.902Z,4.13
2022-09-23T11:18:06.572Z,5.80
2022-09-23T11:21:37.246Z,6.90
2022-09-23T11:25:07.112Z,7.80
2022-09-23T11:28:50.797Z,4.73
2022-09-23T11:32:11.179Z,4.67
2022-09-23T11:35:23.103Z,5.43
2022-09-23T11:38:37.881Z,2.20
2022-09-23T11:41:45.832Z,1.93
2022-09-23T11:44:57.931Z,2.37
2022-09-23T11:48:08.629Z,4.10
2022-09-23T11:51:19.356Z,4.60
2022-09-23T11:54:34.979Z,4.23
2022-09-23T11:57:49.613Z,6.33
2022-09-23T12:01:03.453Z,3.47
2022-09-23T12:04:20.470Z,4.23
2022-09-23T12:07:32.981Z,5.97
2022-09-23T12:10:52.743Z,9.73
2022-09-23T12:14:10.561Z,9.90
2022-09-23T12:17:35.319Z,3.27
2022-09-23T12:21:06.385Z,3.37
2022-09-23T12:24:47.607Z,4.33
2022-09-23T12:27:59.230Z,2.70
2022-09-23T12:31:08.998Z,3.40
2022-09-23T12:34:26.469Z,3.00
2022-09-23T12:37:37.406Z,2.93
2022-09-23T12:40:44.930Z,4.37
2022-09-23T12:43:58.314Z,3.60
2022-09-23T12:47:34.062Z,6.00
2022-09-23T12:50:54.456Z,6.17
2022-09-23T12:54:26.579Z,6.80
2022-09-23T12:57:45.672Z,10.17
2022-09-23T13:01:09.901Z,5.67
2022-09-23T13:04:53.132Z,4.27
2022-09-23T13:08:06.044Z,7.67
2022-09-23T13:11:22.016Z,6.20
2022-09-23T13:14:30.770Z,3.47
2022-09-23T13:17:40.795Z,3.30
2022-09-23T13:20:48.540Z,6.67
2022-09-23T13:24:23.386Z,3.43
2022-09-23T13:27:35.842Z,9.07
2022-09-23T13:30:52.443Z,7.03
2022-09-23T13:34:07.612Z,3.80
2022-09-23T13:37:22.902Z,5.33
2022-09-23T13:40:31.833Z,3.07
2022-09-23T13:43:41.647Z,4.10
2022-09-23T13:46:53.067Z,3.87
2022-09-23T13:50:03.207Z,3.57
2022-09-23T13:53:13.564Z,3.70
2022-09-23T13:56:19.422Z,3.37
2022-09-23T13:59:32.402Z,3.83
2022-09-23T14:02:45.571Z,5.83
2022-09-23T14:05:56.120Z,5.83
2022-09-23T14:09:06.621Z,6.03
2022-09-23T14:12:14.447Z,3.10
2022-09-23T14:15:22.783Z,5.80
2022-09-23T14:18:35.123Z,5.10
2022-09-23T14:21:43.615Z,3.43
2022-09-23T14:24:51.530Z,4.10
2022-09-23T14:28:00.369Z,5.93
2022-09-23T14:31:08.704Z,4.80
2022-09-23T14:34:42.256Z,4.43
2022-09-23T14:38:09.381Z,2.70
2022-09-23T14:41:25.045Z,3.20
2022-09-23T14:44:33.461Z,4.63
2022-09-23T14:47:39.577Z,6.57
2022-09-23T14:50:51.552Z,5.70
2022-09-23T14:54:27.400Z,4.67
2022-09-23T14:57:34.285Z,6.07
2022-09-23T15:00:39.994Z,7.20
2022-09-23T15:03:50.751Z,8.77
2022-09-23T15:07:03.382Z,5.00
2022-09-23T15:10:23.809Z,5.43
2022-09-23T15:13:32.971Z,4.90
2022-09-23T15:16:42.058Z,5.67
2022-09-23T15:19:52.701Z,5.33
2022-09-23T15:22:59.510Z,4.43
2022-09-23T15:26:14.707Z,4.20
2022-09-23T15:29:21.487Z,7.30
2022-09-23T15:32:27.311Z,4.97
2022-09-23T15:35:35.221Z,5.33
2022-09-23T15:38:45.249Z,6.60
2022-09-23T15:41:54.425Z,4.37
2022-09-23T15:45:01.164Z,4.23
2022-09-23T15:48:13.806Z,4.07
2022-09-23T15:51:19.785Z,3.27
2022-09-23T15:54:26.369Z,5.37
2022-09-23T15:57:34.703Z,5.83
2022-09-23T16:00:41.345Z,4.27
2022-09-23T16:03:46.965Z,3.90
2022-09-23T16:06:53.375Z,8.23
2022-09-23T16:09:59.026Z,4.30
2022-09-23T16:13:13.974Z,4.30
2022-09-23T16:16:21.530Z,4.23
2022-09-23T16:19:28.092Z,6.30
2022-09-23T16:22:34.220Z,5.33
2022-09-23T16:25:40.991Z,5.23
2022-09-23T16:28:51.191Z,5.87
2022-09-23T16:31:57.670Z,7.53
2022-09-23T16:35:03.578Z,7.10
2022-09-23T16:38:10.035Z,7.20
2022-09-23T16:41:15.644Z,8.53
2022-09-23T16:44:25.051Z,14.43
2022-09-23T16:47:30.702Z,13.23
2022-09-23T16:50:37.773Z,10.73
2022-09-23T16:53:44.346Z,7.77
2022-09-23T16:56:50.927Z,13.33
2022-09-23T17:00:15.316Z,9.23
2022-09-23T17:03:37.608Z,15.43
2022-09-23T17:06:46.503Z,22.43
2022-09-23T17:09:53.614Z,26.73
2022-09-23T17:13:01.244Z,21.70
2022-09-23T17:16:11.998Z,28.17
2022-09-23T17:19:17.850Z,21.87
2022-09-23T17:22:24.306Z,20.80
2022-09-23T17:25:30.246Z,21.03
2022-09-23T17:28:36.653Z,25.93
2022-09-23T17:31:45.061Z,29.63
2022-09-23T17:34:54.363Z,25.13
2022-09-23T17:37:59.933Z,29.97
2022-09-23T17:41:10.245Z,33.90
2022-09-23T17:44:17.763Z,38.83
2022-09-23T17:47:27.224Z,33.57
2022-09-23T17:50:33.695Z,35.23
2022-09-23T17:53:42.374Z,41.57
2022-09-23T17:56:48.002Z,34.33
2022-09-23T17:59:56.221Z,29.93
2022-09-23T18:03:06.362Z,33.03
2022-09-23T18:06:15.662Z,22.93
2022-09-23T18:09:22.091Z,31.27
2022-09-23T18:12:28.541Z,28.57
2022-09-23T18:15:34.223Z,23.67
2022-09-23T18:18:43.473Z,21.13
2022-09-23T18:21:51.179Z,29.53
2022-09-23T18:24:57.674Z,33.60
2022-09-23T18:28:03.394Z,33.37
2022-09-23T18:31:10.181Z,27.87
2022-09-23T18:34:20.454Z,28.03
2022-09-23T18:37:26.992Z,23.83
2022-09-23T18:40:34.562Z,22.50
2022-09-23T18:43:46.326Z,33.07
2022-09-23T18:46:54.085Z,27.10
2022-09-23T18:50:18.974Z,52.57
2022-09-23T18:53:24.540Z,46.93
2022-09-23T18:56:37.407Z,41.97
2022-09-23T18:59:44.565Z,49.17
2022-09-23T19:02:51.066Z,42.23
2022-09-23T19:06:06.632Z,44.70
2022-09-23T19:09:13.822Z,47.40
2022-09-23T19:12:19.411Z,50.90
2022-09-23T19:15:25.893Z,44.00
2022-09-23T19:18:31.603Z,47.47
2022-09-23T19:21:40.846Z,40.30
2022-09-23T19:24:46.502Z,40.30
2022-09-23T19:27:54.013Z,39.70
2022-09-23T19:30:59.673Z,40.33
2022-09-23T19:34:10.890Z,30.97
2022-09-23T19:37:19.374Z,40.90
2022-09-23T19:40:25.975Z,46.23
2022-09-23T19:43:31.689Z,38.47
2022-09-23T19:46:40.898Z,40.30
2022-09-23T19:49:47.555Z,37.63
2022-09-23T19:52:56.832Z,44.00
2022-09-23T19:56:06.356Z,44.20
2022-09-23T19:59:17.788Z,42.20
2022-09-23T20:02:24.403Z,44.30
2022-09-23T20:05:31.099Z,43.80
2022-09-23T20:08:41.836Z,47.80
2022-09-23T20:11:48.352Z,48.50
2022-09-23T20:14:53.966Z,44.50
2022-09-23T20:18:00.403Z,47.30
2022-09-23T20:21:08.837Z,38.53
2022-09-23T20:24:18.070Z,28.93
2022-09-23T20:27:23.725Z,31.93
2022-09-23T20:30:30.144Z,30.33
2022-09-23T20:33:35.826Z,27.13
2022-09-23T20:36:44.384Z,33.30
2022-09-23T20:39:54.326Z,30.03
2022-09-23T20:43:04.489Z,29.03
2022-09-23T20:46:10.046Z,32.03
2022-09-23T20:49:16.677Z,32.43
2022-09-23T20:52:23.064Z,29.53
2022-09-23T20:55:32.861Z,39.37
2022-09-23T20:58:39.284Z,38.47
2022-09-23T21:01:48.050Z,40.53
2022-09-23T21:04:53.692Z,46.63
2022-09-23T21:08:03.091Z,54.90
2022-09-23T21:11:15.218Z,58.60
2022-09-23T21:14:22.294Z,53.27
2022-09-23T21:17:28.174Z,56.87
2022-09-23T21:20:34.846Z,54.63
2022-09-23T21:23:42.128Z,52.30
2022-09-23T21:26:51.576Z,64.40
2022-09-23T21:29:57.128Z,56.60
2022-09-23T21:33:03.533Z,53.83
2022-09-23T21:36:10.727Z,52.77
2022-09-23T21:39:17.164Z,49.13
2022-09-23T21:42:25.895Z,43.97
2022-09-23T21:45:32.293Z,47.80
2022-09-23T21:48:41.236Z,45.80
2022-09-23T21:51:47.768Z,58.00
2022-09-23T21:54:53.381Z,60.37
2022-09-23T21:58:03.375Z,55.73
2022-09-23T22:01:13.508Z,56.57
2022-09-23T22:04:22.026Z,55.40
2022-09-23T22:07:27.675Z,56.93
2022-09-23T22:10:34.044Z,62.27
2022-09-23T22:13:42.372Z,66.93
2022-09-23T22:16:48.968Z,67.33
2022-09-23T22:19:54.516Z,71.00
2022-09-23T22:23:00.905Z,70.83
2022-09-23T22:26:07.056Z,71.27
2022-09-23T22:29:33.316Z,76.23
2022-09-23T22:32:54.251Z,69.43
2022-09-23T22:36:05.828Z,66.23
2022-09-23T22:39:11.360Z,69.87
2022-09-23T22:42:18.272Z,64.43
2022-09-23T22:45:27.125Z,66.90
2022-09-23T22:48:33.817Z,75.67
2022-09-23T22:51:40.698Z,70.80
2022-09-23T22:54:47.107Z,73.47
2022-09-23T22:57:53.496Z,68.27
2022-09-23T23:01:02.855Z,66.07
2022-09-23T23:04:08.938Z,67.73
2022-09-23T23:07:16.453Z,63.27
2022-09-23T23:10:25.004Z,65.50
2022-09-23T23:13:34.473Z,64.27
2022-09-23T23:16:44.112Z,67.60
2022-09-23T23:19:50.686Z,59.40
2022-09-23T23:22:56.539Z,58.87
2022-09-23T23:26:10.110Z,52.83
2022-09-23T23:29:18.259Z,59.60
2022-09-23T23:32:27.503Z,57.60
2022-09-23T23:35:33.138Z,57.07
2022-09-23T23:38:40.476Z,56.90
2022-09-23T23:41:46.291Z,56.23
2022-09-23T23:44:52.701Z,55.50
2022-09-23T23:48:01.047Z,55.77
2022-09-23T23:51:11.050Z,59.13
2022-09-23T23:54:17.386Z,60.17
2022-09-23T23:57:24.090Z,62.33
